createdAt,value
2023-03-16T00:00:33.284Z,4.88
2023-03-16T00:03:36.509Z,5.13
2023-03-16T00:06:39.017Z,3.85
2023-03-16T00:09:42.976Z,5.68
2023-03-16T00:12:45.365Z,4.32
2023-03-16T00:15:51.138Z,3.42
2023-03-16T00:18:53.555Z,5.22
2023-03-16T00:21:55.828Z,4.53
2023-03-16T00:24:59.666Z,4.75
2023-03-16T00:28:03.617Z,5.40
2023-03-16T00:31:07.320Z,3.58
2023-03-16T00:34:10.080Z,4.10
2023-03-16T00:37:15.353Z,4.18
2023-03-16T00:40:19.362Z,5.47
2023-03-16T00:43:22.015Z,3.80
2023-03-16T00:46:26.593Z,6.47
2023-03-16T00:49:28.853Z,5.82
2023-03-16T00:52:31.075Z,4.90
2023-03-16T00:55:34.795Z,3.50
2023-03-16T00:58:39.288Z,4.72
2023-03-16T01:01:41.953Z,5.93
2023-03-16T01:04:44.286Z,3.40
2023-03-16T01:07:46.624Z,3.72
2023-03-16T01:10:50.226Z,4.15
2023-03-16T01:13:54.450Z,5.30
2023-03-16T01:16:57.146Z,4.38
2023-03-16T01:19:59.453Z,5.05
2023-03-16T01:23:02.285Z,4.15
2023-03-16T01:26:06.476Z,3.67
2023-03-16T01:29:08.831Z,4.13
2023-03-16T01:32:12.186Z,3.55
2023-03-16T01:35:17.165Z,3.50
2023-03-16T01:38:19.697Z,3.03
2023-03-16T01:41:23.536Z,4.00
2023-03-16T01:44:32.698Z,3.88
2023-03-16T01:47:39.927Z,3.72
2023-03-16T01:50:48.268Z,3.92
2023-03-16T01:53:53.087Z,3.88
2023-03-16T01:57:01.039Z,3.90
2023-03-16T02:00:19.016Z,3.17
2023-03-16T02:03:37.492Z,3.60
2023-03-16T02:06:52.181Z,2.67
2023-03-16T02:09:57.436Z,3.55
2023-03-16T02:13:01.558Z,2.90
2023-03-16T02:16:06.198Z,2.97
2023-03-16T02:19:12.678Z,2.58
2023-03-16T02:22:18.113Z,2.92
2023-03-16T02:25:23.357Z,2.53
2023-03-16T02:28:32.020Z,2.25
2023-03-16T02:31:36.827Z,2.72
2023-03-16T02:34:41.575Z,2.63
2023-03-16T02:37:44.878Z,2.60
2023-03-16T02:40:58.135Z,3.20
2023-03-16T02:44:05.185Z,2.33
2023-03-16T02:47:16.796Z,2.63
2023-03-16T02:50:19.577Z,2.50
2023-03-16T02:53:22.124Z,2.00
2023-03-16T02:56:25.632Z,2.47
2023-03-16T02:59:28.076Z,1.95
2023-03-16T03:02:31.992Z,2.65
2023-03-16T03:05:34.385Z,2.25
2023-03-16T03:08:36.992Z,1.88
2023-03-16T03:11:39.430Z,1.73
2023-03-16T03:14:41.911Z,2.05
2023-03-16T03:17:48.033Z,1.42
2023-03-16T03:20:50.353Z,2.42
2023-03-16T03:23:52.785Z,2.30
2023-03-16T03:26:55.167Z,1.70
2023-03-16T03:29:57.430Z,1.77
2023-03-16T03:33:01.604Z,2.03
2023-03-16T03:36:05.740Z,1.77
2023-03-16T03:39:11.501Z,1.95
2023-03-16T03:42:14.286Z,2.13
2023-03-16T03:45:16.791Z,2.55
2023-03-16T03:48:20.683Z,2.30
2023-03-16T03:51:23.547Z,2.17
2023-03-16T03:54:38.704Z,2.10
2023-03-16T03:57:44.853Z,1.98
2023-03-16T04:00:47.305Z,2.63
2023-03-16T04:03:51.121Z,2.25
2023-03-16T04:06:53.989Z,2.20
2023-03-16T04:09:58.098Z,1.98
2023-03-16T04:13:09.963Z,1.27
2023-03-16T04:16:16.198Z,2.55
2023-03-16T04:19:22.676Z,1.98
2023-03-16T04:22:26.179Z,2.05
2023-03-16T04:25:30.515Z,2.13
2023-03-16T04:28:33.930Z,2.38
2023-03-16T04:31:36.180Z,2.50
2023-03-16T04:34:43.662Z,2.40
2023-03-16T04:37:48.251Z,2.72
2023-03-16T04:40:51.370Z,2.47
2023-03-16T04:43:57.762Z,2.60
2023-03-16T04:47:00.875Z,2.15
2023-03-16T04:50:12.988Z,2.33
2023-03-16T04:53:17.731Z,2.45
2023-03-16T04:56:23.939Z,2.28
2023-03-16T04:59:31.852Z,2.70
2023-03-16T05:02:42.848Z,2.88
2023-03-16T05:05:48.315Z,3.10
2023-03-16T05:08:51.357Z,3.03
2023-03-16T05:11:53.746Z,2.22
2023-03-16T05:14:56.225Z,2.85
2023-03-16T05:18:06.619Z,2.67
2023-03-16T05:21:10.734Z,2.75
2023-03-16T05:24:34.603Z,3.85
2023-03-16T05:27:36.858Z,3.10
2023-03-16T05:30:42.265Z,3.97
2023-03-16T05:33:48.472Z,3.47
2023-03-16T05:36:55.816Z,2.88
2023-03-16T05:39:59.049Z,3.50
2023-03-16T05:43:01.501Z,3.05
2023-03-16T05:46:06.229Z,3.05
2023-03-16T05:49:10.145Z,3.60
2023-03-16T05:52:14.364Z,3.85
2023-03-16T05:55:17.936Z,2.38
2023-03-16T05:58:26.013Z,4.43
2023-03-16T06:01:28.508Z,3.55
2023-03-16T06:04:32.228Z,4.93
2023-03-16T06:07:36.915Z,4.47
2023-03-16T06:10:39.883Z,3.45
2023-03-16T06:13:42.733Z,3.47
2023-03-16T06:16:46.219Z,3.78
2023-03-16T06:19:50.042Z,4.97
2023-03-16T06:22:54.460Z,3.70
2023-03-16T06:25:59.566Z,3.95
2023-03-16T06:29:05.782Z,3.60
2023-03-16T06:32:11.220Z,4.65
2023-03-16T06:35:14.962Z,4.85
2023-03-16T06:38:25.624Z,3.08
2023-03-16T06:41:49.717Z,4.10
2023-03-16T06:44:53.048Z,4.20
2023-03-16T06:47:55.415Z,5.40
2023-03-16T06:50:57.890Z,3.28
2023-03-16T06:54:04.405Z,3.75
2023-03-16T06:57:09.071Z,3.88
2023-03-16T07:00:14.173Z,3.95
2023-03-16T07:03:16.615Z,3.65
2023-03-16T07:06:24.598Z,3.10
2023-03-16T07:09:29.495Z,3.67
2023-03-16T07:12:31.801Z,4.50
2023-03-16T07:15:34.471Z,3.97
2023-03-16T07:18:44.236Z,4.13
2023-03-16T07:21:48.182Z,4.68
2023-03-16T07:24:57.399Z,3.95
2023-03-16T07:28:01.893Z,3.70
2023-03-16T07:31:09.574Z,4.72
2023-03-16T07:34:15.901Z,3.88
2023-03-16T07:37:25.625Z,3.20
2023-03-16T07:40:34.570Z,4.05
2023-03-16T07:43:44.451Z,4.00
2023-03-16T07:46:49.771Z,4.03
2023-03-16T07:49:54.050Z,3.78
2023-03-16T07:52:56.494Z,4.30
2023-03-16T07:56:01.317Z,4.00
2023-03-16T07:59:06.488Z,3.35
2023-03-16T08:02:11.891Z,3.78
2023-03-16T08:05:16.169Z,4.80
2023-03-16T08:08:23.737Z,4.25
2023-03-16T08:11:27.964Z,3.72
2023-03-16T08:14:36.889Z,4.05
2023-03-16T08:17:54.135Z,4.75
2023-03-16T08:21:00.548Z,3.63
2023-03-16T08:24:03.780Z,4.03
2023-03-16T08:27:07.556Z,3.97
2023-03-16T08:30:13.047Z,4.10
2023-03-16T08:33:23.175Z,3.78
2023-03-16T08:36:28.931Z,4.47
2023-03-16T08:39:33.646Z,3.65
2023-03-16T08:42:40.237Z,3.92
2023-03-16T08:45:45.366Z,3.60
2023-03-16T08:48:48.597Z,3.17
2023-03-16T08:51:51.363Z,3.75
2023-03-16T08:55:02.999Z,3.92
2023-03-16T08:58:07.956Z,3.75
2023-03-16T09:01:10.284Z,3.65
2023-03-16T09:04:13.219Z,4.07
2023-03-16T09:07:15.675Z,3.17
2023-03-16T09:10:19.822Z,3.75
2023-03-16T09:13:24.474Z,3.88
2023-03-16T09:16:27.154Z,3.58
2023-03-16T09:19:47.854Z,3.50
2023-03-16T09:22:52.698Z,2.38
2023-03-16T09:25:58.027Z,4.25
2023-03-16T09:29:02.239Z,4.18
2023-03-16T09:32:05.408Z,3.72
2023-03-16T09:35:08.566Z,4.47
2023-03-16T09:38:11.507Z,3.55
2023-03-16T09:41:25.353Z,4.57
2023-03-16T09:44:35.135Z,4.47
2023-03-16T09:47:38.615Z,4.38
2023-03-16T09:50:48.875Z,3.17
2023-03-16T09:53:54.287Z,4.45
2023-03-16T09:56:57.595Z,4.30
2023-03-16T10:00:13.838Z,3.85
2023-03-16T10:03:28.499Z,4.80
2023-03-16T10:06:31.633Z,5.00
2023-03-16T10:09:36.566Z,5.10
2023-03-16T10:12:42.112Z,4.20
2023-03-16T10:15:46.950Z,5.05
2023-03-16T10:18:50.958Z,4.95
2023-03-16T10:21:54.925Z,4.00
2023-03-16T10:25:02.748Z,4.07
2023-03-16T10:28:05.222Z,3.97
2023-03-16T10:31:10.854Z,4.07
2023-03-16T10:34:15.307Z,3.75
2023-03-16T10:37:17.894Z,4.32
2023-03-16T10:40:20.611Z,4.50
2023-03-16T10:43:23.314Z,4.50
2023-03-16T10:46:28.801Z,4.38
2023-03-16T10:49:36.906Z,3.17
2023-03-16T10:52:42.506Z,4.78
2023-03-16T10:55:45.746Z,3.42
2023-03-16T10:58:48.169Z,3.63
2023-03-16T11:01:52.673Z,4.28
2023-03-16T11:04:57.394Z,4.68
2023-03-16T11:08:02.157Z,3.75
2023-03-16T11:11:09.320Z,3.83
2023-03-16T11:14:13.878Z,4.22
2023-03-16T11:17:21.459Z,4.00
2023-03-16T11:20:26.587Z,4.57
2023-03-16T11:23:31.791Z,2.90
2023-03-16T11:26:35.728Z,4.40
2023-03-16T11:29:47.190Z,3.70
2023-03-16T11:32:54.003Z,3.63
2023-03-16T11:36:01.281Z,3.13
2023-03-16T11:39:09.228Z,3.13
2023-03-16T11:42:23.225Z,2.80
2023-03-16T11:45:29.769Z,2.90
2023-03-16T11:48:37.451Z,3.00
2023-03-16T11:51:44.406Z,2.75
2023-03-16T11:54:55.373Z,3.13
2023-03-16T11:58:03.863Z,2.95
2023-03-16T12:01:10.206Z,2.83
2023-03-16T12:04:24.950Z,2.40
2023-03-16T12:07:40.986Z,2.40
2023-03-16T12:10:46.775Z,2.85
2023-03-16T12:14:00.424Z,2.40
2023-03-16T12:17:05.513Z,2.40
2023-03-16T12:20:16.005Z,3.53
2023-03-16T12:23:23.326Z,1.98
2023-03-16T12:26:30.278Z,2.50
2023-03-16T12:29:36.669Z,1.88
2023-03-16T12:32:43.501Z,2.20
2023-03-16T12:35:51.560Z,1.83
2023-03-16T12:38:57.131Z,2.00
2023-03-16T12:42:06.878Z,1.58
2023-03-16T12:45:13.291Z,2.00
2023-03-16T12:48:23.004Z,1.90
2023-03-16T12:51:34.477Z,1.90
2023-03-16T12:54:36.857Z,1.63
2023-03-16T12:57:39.720Z,2.45
2023-03-16T13:00:42.730Z,1.58
2023-03-16T13:03:48.091Z,1.77
2023-03-16T13:07:01.960Z,1.88
2023-03-16T13:10:09.981Z,2.50
2023-03-16T13:13:14.966Z,2.00
2023-03-16T13:16:24.772Z,1.80
2023-03-16T13:19:29.864Z,1.95
2023-03-16T13:22:45.365Z,1.95
2023-03-16T13:26:01.347Z,1.10
2023-03-16T13:29:07.916Z,1.67
2023-03-16T13:32:17.769Z,1.73
2023-03-16T13:35:22.683Z,1.00
2023-03-16T13:38:28.753Z,1.23
2023-03-16T13:41:31.838Z,1.52
2023-03-16T13:44:34.991Z,1.60
2023-03-16T13:47:38.096Z,1.77
2023-03-16T13:50:44.752Z,1.23
2023-03-16T13:53:50.362Z,1.40
2023-03-16T13:56:53.940Z,1.33
2023-03-16T14:00:01.486Z,1.02
2023-03-16T14:03:11.583Z,1.20
2023-03-16T14:06:22.246Z,1.10
2023-03-16T14:09:28.640Z,0.95
2023-03-16T14:12:31.005Z,0.88
2023-03-16T14:15:34.320Z,2.28
2023-03-16T14:18:38.964Z,1.55
2023-03-16T14:21:44.366Z,1.40
2023-03-16T14:24:54.549Z,1.13
2023-03-16T14:27:58.621Z,1.17
2023-03-16T14:31:05.407Z,0.80
2023-03-16T14:34:21.435Z,1.50
2023-03-16T14:37:34.720Z,1.38
2023-03-16T14:40:40.354Z,1.58
2023-03-16T14:43:46.686Z,1.08
2023-03-16T14:46:49.559Z,1.40
2023-03-16T14:49:53.284Z,1.58
2023-03-16T14:52:56.480Z,1.60
2023-03-16T14:56:00.924Z,1.13
2023-03-16T14:59:04.198Z,1.50
2023-03-16T15:02:15.311Z,1.20
2023-03-16T15:05:30.622Z,1.35
2023-03-16T15:08:34.476Z,1.40
2023-03-16T15:11:38.484Z,1.58
2023-03-16T15:14:59.446Z,1.33
2023-03-16T15:18:02.034Z,1.50
2023-03-16T15:21:06.618Z,1.95
2023-03-16T15:24:10.953Z,1.48
2023-03-16T15:27:21.081Z,1.65
2023-03-16T15:30:26.274Z,1.63
2023-03-16T15:33:28.696Z,1.30
2023-03-16T15:36:31.214Z,2.08
2023-03-16T15:39:33.568Z,1.35
2023-03-16T15:42:37.327Z,1.75
2023-03-16T15:45:39.881Z,1.63
2023-03-16T15:48:42.449Z,1.58
2023-03-16T15:51:44.830Z,2.38
2023-03-16T15:54:47.177Z,1.90
2023-03-16T15:57:55.071Z,2.00
2023-03-16T16:00:59.392Z,2.50
2023-03-16T16:04:01.890Z,2.08
2023-03-16T16:07:09.767Z,2.58
2023-03-16T16:10:13.485Z,2.50
2023-03-16T16:13:19.352Z,1.90
2023-03-16T16:16:21.745Z,1.73
2023-03-16T16:19:24.119Z,2.28
2023-03-16T16:22:26.611Z,1.73
2023-03-16T16:25:35.184Z,2.10
2023-03-16T16:28:44.481Z,2.03
2023-03-16T16:31:56.373Z,2.00
2023-03-16T16:35:04.515Z,2.33
2023-03-16T16:38:07.713Z,2.10
2023-03-16T16:41:15.762Z,2.38
2023-03-16T16:44:22.060Z,2.58
2023-03-16T16:47:24.929Z,2.47
2023-03-16T16:50:28.526Z,2.47
2023-03-16T16:53:31.063Z,2.25
2023-03-16T16:56:38.661Z,2.95
2023-03-16T16:59:45.812Z,3.50
2023-03-16T17:02:53.436Z,2.38
2023-03-16T17:05:57.901Z,2.75
2023-03-16T17:09:01.085Z,2.97
2023-03-16T17:12:04.379Z,2.70
2023-03-16T17:15:19.205Z,2.97
2023-03-16T17:18:25.546Z,2.40
2023-03-16T17:21:29.999Z,3.00
2023-03-16T17:24:32.717Z,2.13
2023-03-16T17:27:39.268Z,2.78
2023-03-16T17:30:43.775Z,2.58
2023-03-16T17:33:46.289Z,1.85
2023-03-16T17:36:48.971Z,3.70
2023-03-16T17:39:52.029Z,2.65
2023-03-16T17:42:57.857Z,2.40
2023-03-16T17:46:03.004Z,3.00
2023-03-16T17:49:12.143Z,2.83
2023-03-16T17:52:18.351Z,2.45
2023-03-16T17:55:24.619Z,2.92
2023-03-16T17:58:28.981Z,2.38
2023-03-16T18:01:33.865Z,2.40
2023-03-16T18:04:36.578Z,2.80
2023-03-16T18:07:41.683Z,2.40
2023-03-16T18:10:46.007Z,2.50
2023-03-16T18:13:50.174Z,3.13
2023-03-16T18:16:54.824Z,2.35
2023-03-16T18:19:59.162Z,2.95
2023-03-16T18:23:05.849Z,2.53
2023-03-16T18:26:09.025Z,2.10
2023-03-16T18:29:13.704Z,1.95
2023-03-16T18:32:21.737Z,2.40
2023-03-16T18:35:25.424Z,2.05
2023-03-16T18:38:30.579Z,2.08
2023-03-16T18:41:34.324Z,2.63
2023-03-16T18:44:36.901Z,1.73
2023-03-16T18:47:43.888Z,1.95
2023-03-16T18:50:46.927Z,2.30
2023-03-16T18:53:49.979Z,1.73
2023-03-16T18:56:53.861Z,2.40
2023-03-16T18:59:56.244Z,2.47
2023-03-16T19:03:03.019Z,2.40
2023-03-16T19:06:06.222Z,2.28
2023-03-16T19:09:18.035Z,2.17
2023-03-16T19:12:21.228Z,2.10
2023-03-16T19:15:27.797Z,2.17
2023-03-16T19:18:31.591Z,1.65
2023-03-16T19:21:33.992Z,2.28
2023-03-16T19:24:42.297Z,1.80
2023-03-16T19:27:44.785Z,2.80
2023-03-16T19:30:47.431Z,2.45
2023-03-16T19:33:52.046Z,1.90
2023-03-16T19:36:55.068Z,2.47
2023-03-16T19:39:57.728Z,1.92
2023-03-16T19:43:00.298Z,2.13
2023-03-16T19:46:02.610Z,2.53
2023-03-16T19:49:10.032Z,2.45
2023-03-16T19:52:12.452Z,2.75
2023-03-16T19:55:19.836Z,2.28
2023-03-16T19:58:27.756Z,2.47
2023-03-16T20:01:32.946Z,1.58
2023-03-16T20:04:36.708Z,2.95
2023-03-16T20:07:38.949Z,3.20
2023-03-16T20:10:41.497Z,3.00
2023-03-16T20:13:44.256Z,2.97
2023-03-16T20:16:48.049Z,2.72
2023-03-16T20:19:53.012Z,2.22
2023-03-16T20:22:58.409Z,2.83
2023-03-16T20:26:02.691Z,2.30
2023-03-16T20:29:15.785Z,3.05
2023-03-16T20:32:20.479Z,3.40
2023-03-16T20:35:27.596Z,3.38
2023-03-16T20:38:30.168Z,3.28
2023-03-16T20:41:32.779Z,4.50
2023-03-16T20:44:35.116Z,2.80
2023-03-16T20:47:37.659Z,3.15
2023-03-16T20:50:41.481Z,4.20
2023-03-16T20:53:44.354Z,2.92
2023-03-16T20:56:47.998Z,2.83
2023-03-16T20:59:51.679Z,3.38
2023-03-16T21:02:54.977Z,2.50
2023-03-16T21:06:00.029Z,2.90
2023-03-16T21:09:05.693Z,2.80
2023-03-16T21:12:14.366Z,2.80
2023-03-16T21:15:20.797Z,2.45
2023-03-16T21:18:23.603Z,2.88
2023-03-16T21:21:27.307Z,2.75
2023-03-16T21:24:29.624Z,3.63
2023-03-16T21:27:33.965Z,2.42
2023-03-16T21:30:40.255Z,2.20
2023-03-16T21:33:43.155Z,2.10
2023-03-16T21:36:47.980Z,2.20
2023-03-16T21:39:53.905Z,3.85
2023-03-16T21:42:56.332Z,2.38
2023-03-16T21:45:59.660Z,2.10
2023-03-16T21:49:03.678Z,2.92
2023-03-16T21:52:22.616Z,3.00
2023-03-16T21:55:26.879Z,2.50
2023-03-16T21:58:29.171Z,2.13
2023-03-16T22:01:32.935Z,2.22
2023-03-16T22:04:36.996Z,2.35
2023-03-16T22:07:40.623Z,2.40
2023-03-16T22:10:43.339Z,1.73
2023-03-16T22:13:46.444Z,2.15
2023-03-16T22:16:49.148Z,2.10
2023-03-16T22:19:51.494Z,2.00
2023-03-16T22:22:55.713Z,1.98
2023-03-16T22:25:58.306Z,1.95
2023-03-16T22:29:01.489Z,2.50
2023-03-16T22:32:07.444Z,2.72
2023-03-16T22:35:23.306Z,1.70
2023-03-16T22:38:27.224Z,1.60
2023-03-16T22:41:30.236Z,1.73
2023-03-16T22:44:32.633Z,1.45
2023-03-16T22:47:36.867Z,2.28
2023-03-16T22:50:39.236Z,1.63
2023-03-16T22:53:44.381Z,1.98
2023-03-16T22:56:47.726Z,2.08
2023-03-16T22:59:51.241Z,1.50
2023-03-16T23:02:53.729Z,1.40
2023-03-16T23:05:56.556Z,1.13
2023-03-16T23:09:03.644Z,1.38
2023-03-16T23:12:11.074Z,1.20
2023-03-16T23:15:18.641Z,1.20
2023-03-16T23:18:22.460Z,1.60
2023-03-16T23:21:26.254Z,1.67
2023-03-16T23:24:30.100Z,2.03
2023-03-16T23:27:32.440Z,1.73
2023-03-16T23:30:34.966Z,1.48
2023-03-16T23:33:37.284Z,1.45
2023-03-16T23:36:40.037Z,1.50
2023-03-16T23:39:43.774Z,1.33
2023-03-16T23:42:46.701Z,1.70
2023-03-16T23:45:49.049Z,1.23
2023-03-16T23:48:52.338Z,1.52
2023-03-16T23:51:56.724Z,1.45
2023-03-16T23:55:01.290Z,1.38
2023-03-16T23:58:03.682Z,0.95
